Winnebago Heights, Iowa
Current Conditions -  °F | °C
As of 6:53 PM on Wednesday 22 Oct 2014 (Local Time) from KMCW Reporting Station
Broken Clouds Broken Clouds  
Wind Chill: 57°   Ceiling: 7000
Heat Index: 57°   Visibility: 10mi
Dew Point: 42°   Wind: 15mph
Humidity: 57%   Direction: 150°SSE
Pressure: 30.11"   Gusts: NA
Location:  43.1451°N, 93.1385°W
Report Text: KMCW 222353Z AUTO 15013KT 10SM SCT055 BKN070 BKN100 14/06 A3011 RMK AO2 SLP196 T01390056 10167 20128 56006
Loading
Personal Weather Stations






























Interactive Weather Map
Tropical Storm Tracking
New forecast layout! Learn more

10-Day Weather Forecast

Advertisements
Track Severe Weather on mobile